»·PEaware :: DAL1702 KJAC-KSLC

DAL1702 :: KJAC-KSLC

FLIGHT INFORMATION

Flight Status: Arrived
Operator:
Delta Air Lines
More flights by this operator :: More flights under this callsign
Pilot: Chandler S. (807)
Aircraft: AIRBUS A319
(A319)
More flights by this aircraft type
Origin: KJAC Jackson Hole
United States
Destination: KSLC Salt Lake City Intl
United States
More flights between these airports :: More routes between these airports
Route: ALPIN2 KICNE LHO NORDK6
File this flight plan on PilotEdge
Remarks:
Altitude:
(Current/Filed)
30,000ft
Speed:
(Current/Filed)
400kts
Departed: 23-Oct-20 03:53 PM
Arrived: 23-Oct-20 04:27 PM
Distance/Time
Traveled:
178nm/0:34
Distance/Time
To Go:
Arrived

Flight Plot

Page will automatically refresh every two minutes.

Flight plan parsing failed; only flown route is shown


Map Options




Map Legend


Flown Route
Filed Route
Departure Airport
Arrival Airport
Navaid (VOR, NDB)
Fix

Horizontal Profiles

Position Reports

Time Latitude Longitude Heading Altitude Ground
Speed
23-Oct-20 15:39 43.604648 -110.736496 109 6459ft 0kts
23-Oct-20 15:40 43.604648 -110.736496 109 6459ft 0kts
23-Oct-20 15:41 43.604648 -110.736496 109 6459ft 0kts
23-Oct-20 15:42 43.604648 -110.736496 109 6459ft 0kts
23-Oct-20 15:43 43.604648 -110.736496 109 6459ft 0kts
23-Oct-20 15:44 43.604648 -110.736496 109 6459ft 0kts
23-Oct-20 15:45 43.604648 -110.736496 109 6459ft 0kts
23-Oct-20 15:46 43.604692 -110.736665 109 6460ft 2kts
23-Oct-20 15:47 43.604699 -110.737375 48 6459ft 2kts
23-Oct-20 15:48 43.604506 -110.737541 19 6459ft 0kts
23-Oct-20 15:49 43.604506 -110.737541 19 6459ft 0kts
23-Oct-20 15:50 43.605402 -110.737107 19 6459ft 11kts
23-Oct-20 15:51 43.609604 -110.735072 19 6459ft 19kts
23-Oct-20 15:52 43.614987 -110.732699 343 6459ft 0kts
23-Oct-20 15:53 43.610176 -110.736396 199 6460ft 109kts
23-Oct-20 15:53 43.582306 -110.764121 251 8379ft 184kts
23-Oct-20 15:55 43.530434 -110.805200 202 11898ft 192kts
23-Oct-20 15:55 43.485708 -110.830726 205 14159ft 242kts
23-Oct-20 15:57 43.400705 -110.881018 206 17459ft 316kts
23-Oct-20 15:57 43.332446 -110.921388 208 19971ft 326kts
23-Oct-20 15:59 43.235733 -110.978467 210 23472ft 323kts
23-Oct-20 15:59 43.170290 -111.024098 217 25983ft 314kts
23-Oct-20 16:00 43.094848 -111.079403 220 28967ft 301kts
23-Oct-20 16:01 43.020257 -111.134514 220 30117ft 330kts
23-Oct-20 16:02 42.931138 -111.200060 215 30121ft 402kts
23-Oct-20 16:03 42.823361 -111.277889 212 30118ft 468kts
23-Oct-20 16:04 42.707993 -111.360702 213 30118ft 470kts
23-Oct-20 16:05 42.592555 -111.443764 213 30118ft 470kts
23-Oct-20 16:06 42.476626 -111.526916 213 30122ft 470kts
23-Oct-20 16:07 42.361975 -111.608622 214 28710ft 463kts
23-Oct-20 16:08 42.250835 -111.688013 213 26810ft 444kts
23-Oct-20 16:09 42.143873 -111.764054 213 24907ft 427kts
23-Oct-20 16:10 42.040646 -111.836912 213 23000ft 411kts
23-Oct-20 16:11 41.941648 -111.906500 212 21099ft 395kts
23-Oct-20 16:12 41.845470 -111.973677 212 19183ft 381kts
23-Oct-20 16:13 41.746442 -112.018159 191 17480ft 381kts
23-Oct-20 16:14 41.643092 -112.033883 191 15881ft 369kts
23-Oct-20 16:15 41.542523 -112.049598 191 14590ft 354kts
23-Oct-20 16:16 41.448344 -112.053179 179 13291ft 334kts
23-Oct-20 16:17 41.356838 -112.042075 179 12016ft 326kts
23-Oct-20 16:18 41.271357 -112.028104 175 11291ft 306kts
23-Oct-20 16:19 41.187664 -112.011384 175 10013ft 297kts
23-Oct-20 16:20 41.111358 -111.996782 175 9985ft 263kts
23-Oct-20 16:21 41.039710 -111.985194 182 9398ft 257kts
23-Oct-20 16:22 40.970392 -111.985868 183 8028ft 233kts
23-Oct-20 16:23 40.910332 -111.986314 181 6544ft 201kts
23-Oct-20 16:24 40.856700 -111.982535 175 5489ft 190kts
23-Oct-20 16:25 40.805563 -111.976700 175 4260ft 167kts
23-Oct-20 16:26 40.786335 -111.976169 289 4236ft 21kts
23-Oct-20 16:27 40.789959 -111.980316 260 4236ft 16kts
23-Oct-20 16:28 40.789217 -111.981176 195 4235ft 0kts
23-Oct-20 16:29 40.789217 -111.981176 195 4235ft 0kts

Navigation Log

Ident Type
Flight plan parsing failed, navigation log unavailable